createdAt,value
2023-03-15T00:02:07.127Z,99493.59
2023-03-15T00:04:34.950Z,99514.03
2023-03-15T00:07:03.530Z,99518.06
2023-03-15T00:09:31.187Z,99514.94
2023-03-15T00:11:59.251Z,99522.53
2023-03-15T00:14:26.939Z,99526.44
2023-03-15T00:16:55.053Z,99533.97
2023-03-15T00:19:22.768Z,99538.75
2023-03-15T00:21:50.789Z,99539.81
2023-03-15T00:24:18.548Z,99536.44
2023-03-15T00:26:46.648Z,99546.16
2023-03-15T00:29:14.398Z,99544.03
2023-03-15T00:31:42.455Z,99542.31
2023-03-15T00:34:10.098Z,99550.69
2023-03-15T00:36:39.119Z,99559.56
2023-03-15T00:39:07.082Z,99563.03
2023-03-15T00:41:35.459Z,99563.97
2023-03-15T00:44:04.608Z,99566.38
2023-03-15T00:46:32.974Z,99572.50
2023-03-15T00:49:00.970Z,99570.69
2023-03-15T00:51:29.128Z,99575.56
2023-03-15T00:53:56.935Z,99581.50
2023-03-15T00:56:26.507Z,99577.50
2023-03-15T00:58:54.222Z,99581.31
2023-03-15T01:01:24.693Z,99580.72
2023-03-15T01:03:52.764Z,99585.03
2023-03-15T01:06:22.272Z,99586.78
2023-03-15T01:08:51.894Z,99584.44
2023-03-15T01:11:22.483Z,99589.97
2023-03-15T01:13:54.093Z,99591.78
2023-03-15T01:16:22.067Z,99583.13
2023-03-15T01:18:51.941Z,99577.97
2023-03-15T01:21:21.507Z,99576.56
2023-03-15T01:23:49.017Z,99579.94
2023-03-15T01:26:17.452Z,99582.94
2023-03-15T01:28:45.130Z,99576.47
2023-03-15T01:31:23.828Z,99585.03
2023-03-15T01:33:51.800Z,99579.28
2023-03-15T01:36:20.372Z,99582.81
2023-03-15T01:38:49.986Z,99584.50
2023-03-15T01:41:21.825Z,99582.13
2023-03-15T01:43:49.376Z,99587.81
2023-03-15T01:46:29.289Z,99598.09
2023-03-15T01:49:23.073Z,99597.31
2023-03-15T01:51:57.297Z,99598.06
2023-03-15T01:54:29.157Z,99605.75
2023-03-15T01:57:09.582Z,99598.25
2023-03-15T01:59:43.588Z,99602.38
2023-03-15T02:02:15.210Z,99597.78
2023-03-15T02:04:47.354Z,99591.34
2023-03-15T02:07:18.534Z,99589.28
2023-03-15T02:10:01.804Z,99590.47
2023-03-15T02:12:33.163Z,99590.38
2023-03-15T02:15:03.022Z,99580.50
2023-03-15T02:17:37.098Z,99580.00
2023-03-15T02:20:15.855Z,99585.66
2023-03-15T02:22:49.845Z,99583.84
2023-03-15T02:25:23.554Z,99586.44
2023-03-15T02:27:52.000Z,99578.63
2023-03-15T02:30:19.669Z,99583.06
2023-03-15T02:32:47.761Z,99580.34
2023-03-15T02:35:23.714Z,99577.34
2023-03-15T02:37:54.770Z,99580.91
2023-03-15T02:40:23.474Z,99582.84
2023-03-15T02:42:53.468Z,99585.91
2023-03-15T02:45:21.766Z,99586.94
2023-03-15T02:47:51.937Z,99585.34
2023-03-15T02:50:19.991Z,99592.72
2023-03-15T02:52:48.011Z,99593.53
2023-03-15T02:55:15.561Z,99595.44
2023-03-15T02:57:43.665Z,99584.94
2023-03-15T03:00:14.647Z,99596.66
2023-03-15T03:02:45.789Z,99603.34
2023-03-15T03:05:14.246Z,99600.13
2023-03-15T03:07:45.465Z,99607.97
2023-03-15T03:10:15.902Z,99611.72
2023-03-15T03:12:53.865Z,99611.00
2023-03-15T03:15:28.310Z,99609.09
2023-03-15T03:17:56.160Z,99606.06
2023-03-15T03:20:24.560Z,99611.81
2023-03-15T03:22:52.467Z,99612.50
2023-03-15T03:25:19.977Z,99620.75
2023-03-15T03:27:48.967Z,99615.84
2023-03-15T03:30:17.065Z,99625.41
2023-03-15T03:32:50.938Z,99627.41
2023-03-15T03:35:18.621Z,99626.31
2023-03-15T03:37:46.482Z,99632.53
2023-03-15T03:40:21.660Z,99641.91
2023-03-15T03:42:49.752Z,99640.00
2023-03-15T03:45:19.972Z,99642.22
2023-03-15T03:47:51.944Z,99646.47
2023-03-15T03:50:19.475Z,99659.38
2023-03-15T03:52:47.394Z,99662.81
2023-03-15T03:55:25.352Z,99670.03
2023-03-15T03:57:54.531Z,99664.34
2023-03-15T04:00:38.481Z,99661.03
2023-03-15T04:03:08.238Z,99658.03
2023-03-15T04:05:38.030Z,99665.16
2023-03-15T04:08:05.953Z,99669.25
2023-03-15T04:10:38.572Z,99674.59
2023-03-15T04:13:06.754Z,99674.72
2023-03-15T04:15:34.450Z,99672.94
2023-03-15T04:18:06.075Z,99669.03
2023-03-15T04:20:39.741Z,99666.59
2023-03-15T04:23:07.641Z,99669.72
2023-03-15T04:25:42.542Z,99674.38
2023-03-15T04:28:30.476Z,99673.34
2023-03-15T04:31:16.741Z,99661.00
2023-03-15T04:34:17.250Z,99663.13
2023-03-15T04:37:00.006Z,99668.59
2023-03-15T04:39:37.268Z,99677.03
2023-03-15T04:42:30.650Z,99680.50
2023-03-15T04:45:19.378Z,99683.50
2023-03-15T04:48:13.209Z,99687.59
2023-03-15T04:50:50.536Z,99692.41
2023-03-15T04:53:34.726Z,99689.38
2023-03-15T04:56:15.583Z,99695.63
2023-03-15T04:58:55.164Z,99694.84
2023-03-15T05:01:41.580Z,99702.22
2023-03-15T05:04:32.289Z,99704.44
2023-03-15T05:07:26.379Z,99713.78
2023-03-15T05:10:23.401Z,99717.47
2023-03-15T05:13:09.639Z,99713.59
2023-03-15T05:15:47.090Z,99725.78
2023-03-15T05:18:34.152Z,99730.16
2023-03-15T05:21:21.922Z,99730.19
2023-03-15T05:24:08.497Z,99730.97
2023-03-15T05:26:56.769Z,99736.97
2023-03-15T05:29:43.687Z,99729.38
2023-03-15T05:32:35.020Z,99738.84
2023-03-15T05:35:18.907Z,99748.72
2023-03-15T05:38:09.458Z,99763.78
2023-03-15T05:41:07.029Z,99764.13
2023-03-15T05:43:44.239Z,99771.16
2023-03-15T05:46:38.280Z,99776.19
2023-03-15T05:49:12.450Z,99783.09
2023-03-15T05:52:03.522Z,99798.59
2023-03-15T05:54:38.367Z,99807.38
2023-03-15T05:57:21.233Z,99796.56
2023-03-15T06:00:00.009Z,99795.59
2023-03-15T06:02:44.215Z,99794.84
2023-03-15T06:05:30.625Z,99786.88
2023-03-15T06:08:02.724Z,99793.97
2023-03-15T06:10:30.403Z,99797.63
2023-03-15T06:13:01.283Z,99810.53
2023-03-15T06:15:28.937Z,99823.91
2023-03-15T06:17:57.696Z,99826.34
2023-03-15T06:20:25.313Z,99833.59
2023-03-15T06:22:53.599Z,99846.47
2023-03-15T06:25:35.178Z,99846.44
2023-03-15T06:28:03.281Z,99851.13
2023-03-15T06:30:31.074Z,99846.72
2023-03-15T06:33:01.989Z,99853.28
2023-03-15T06:35:31.339Z,99853.06
2023-03-15T06:37:59.267Z,99852.22
2023-03-15T06:40:27.749Z,99848.78
2023-03-15T06:42:55.717Z,99860.03
2023-03-15T06:45:23.317Z,99857.16
2023-03-15T06:47:51.395Z,99860.56
2023-03-15T06:50:18.998Z,99864.50
2023-03-15T06:52:46.889Z,99877.16
2023-03-15T06:55:18.360Z,99875.63
2023-03-15T06:57:46.785Z,99876.88
2023-03-15T07:00:14.877Z,99884.75
2023-03-15T07:02:42.825Z,99882.28
2023-03-15T07:05:11.283Z,99874.44
2023-03-15T07:07:39.151Z,99876.41
2023-03-15T07:10:06.821Z,99875.53
2023-03-15T07:12:34.677Z,99875.78
2023-03-15T07:15:02.475Z,99877.16
2023-03-15T07:17:30.359Z,99878.16
2023-03-15T07:19:57.934Z,99885.09
2023-03-15T07:22:26.772Z,99888.94
2023-03-15T07:24:54.401Z,99889.72
2023-03-15T07:27:22.392Z,99900.44
2023-03-15T07:29:49.926Z,99900.19
2023-03-15T07:32:17.929Z,99907.94
2023-03-15T07:34:45.532Z,99907.66
2023-03-15T07:37:13.426Z,99906.34
2023-03-15T07:39:41.448Z,99907.63
2023-03-15T07:42:09.502Z,99920.25
2023-03-15T07:44:42.339Z,99921.91
2023-03-15T07:47:10.378Z,99931.88
2023-03-15T07:49:38.027Z,99936.75
2023-03-15T07:52:05.992Z,99937.44
2023-03-15T07:54:34.811Z,99943.94
2023-03-15T07:57:02.734Z,99952.66
2023-03-15T07:59:30.333Z,99953.25
2023-03-15T08:01:59.624Z,99960.22
2023-03-15T08:04:29.463Z,99956.72
2023-03-15T08:06:57.437Z,99971.06
2023-03-15T08:09:25.190Z,99974.34
2023-03-15T08:11:54.417Z,99971.34
2023-03-15T08:14:22.166Z,99977.97
2023-03-15T08:16:50.419Z,99976.25
2023-03-15T08:19:17.947Z,99981.88
2023-03-15T08:21:45.808Z,99989.88
2023-03-15T08:24:13.398Z,99977.31
2023-03-15T08:26:43.798Z,99985.22
2023-03-15T08:29:11.495Z,100001.31
2023-03-15T08:31:39.600Z,99991.84
2023-03-15T08:34:07.597Z,99992.81
2023-03-15T08:36:35.535Z,99998.84
2023-03-15T08:39:04.547Z,100002.09
2023-03-15T08:41:32.498Z,100008.09
2023-03-15T08:44:00.107Z,100010.53
2023-03-15T08:46:28.296Z,100011.81
2023-03-15T08:48:55.854Z,100013.19
2023-03-15T08:51:25.666Z,100020.72
2023-03-15T08:53:53.756Z,100028.75
2023-03-15T08:56:21.785Z,100039.41
2023-03-15T08:58:49.305Z,100040.13
2023-03-15T09:01:17.548Z,100045.47
2023-03-15T09:03:45.141Z,100058.59
2023-03-15T09:06:13.720Z,100051.50
2023-03-15T09:08:42.161Z,100062.22
2023-03-15T09:11:10.692Z,100066.28
2023-03-15T09:13:38.283Z,100074.31
2023-03-15T09:16:06.395Z,100075.44
2023-03-15T09:18:34.341Z,100079.97
2023-03-15T09:21:02.488Z,100077.25
2023-03-15T09:23:30.118Z,100084.47
2023-03-15T09:25:57.993Z,100098.59
2023-03-15T09:28:28.137Z,100098.16
2023-03-15T09:30:56.588Z,100098.09
2023-03-15T09:33:25.369Z,100112.44
2023-03-15T09:35:53.484Z,100109.75
2023-03-15T09:38:22.261Z,100116.22
2023-03-15T09:40:50.562Z,100120.25
2023-03-15T09:43:36.659Z,100125.94
2023-03-15T09:46:07.581Z,100136.53
2023-03-15T09:48:44.514Z,100135.78
2023-03-15T09:51:16.296Z,100134.38
2023-03-15T09:53:50.799Z,100145.38
2023-03-15T09:56:31.277Z,100142.78
2023-03-15T09:58:59.892Z,100147.47
2023-03-15T10:01:38.604Z,100151.94
2023-03-15T10:04:11.567Z,100155.59
2023-03-15T10:06:46.238Z,100159.69
2023-03-15T10:09:16.869Z,100156.34
2023-03-15T10:11:45.565Z,100166.16
2023-03-15T10:14:28.631Z,100169.34
2023-03-15T10:16:56.566Z,100168.53
2023-03-15T10:19:27.117Z,100171.78
2023-03-15T10:21:59.286Z,100169.25
2023-03-15T10:24:45.474Z,100167.75
2023-03-15T10:27:33.633Z,100170.06
2023-03-15T10:30:02.568Z,100166.16
2023-03-15T10:32:35.183Z,100181.63
2023-03-15T10:35:02.916Z,100173.66
2023-03-15T10:37:30.741Z,100176.34
2023-03-15T10:39:59.836Z,100179.25
2023-03-15T10:42:29.254Z,100183.56
2023-03-15T10:44:56.992Z,100176.50
2023-03-15T10:47:26.239Z,100186.25
2023-03-15T10:49:57.806Z,100184.50
2023-03-15T10:52:37.082Z,100194.53
2023-03-15T10:55:07.950Z,100193.56
2023-03-15T10:57:39.317Z,100202.84
2023-03-15T11:00:26.264Z,100201.03
2023-03-15T11:03:03.398Z,100217.25
2023-03-15T11:05:44.667Z,100219.41
2023-03-15T11:08:23.213Z,100220.66
2023-03-15T11:11:00.413Z,100223.72
2023-03-15T11:13:30.087Z,100235.91
2023-03-15T11:16:15.783Z,100240.00
2023-03-15T11:18:46.833Z,100275.13
2023-03-15T11:21:15.357Z,100268.22
2023-03-15T11:23:44.479Z,100276.72
2023-03-15T11:26:31.507Z,100291.19
2023-03-15T11:29:02.213Z,100306.81
2023-03-15T11:31:31.401Z,100303.81
2023-03-15T11:34:14.349Z,100309.56
2023-03-15T11:36:44.289Z,100326.16
2023-03-15T11:39:14.400Z,100329.03
2023-03-15T11:41:48.837Z,100310.25
2023-03-15T11:44:29.327Z,100302.91
2023-03-15T11:47:20.169Z,100299.50
2023-03-15T11:49:51.033Z,100308.78
2023-03-15T11:52:20.027Z,100324.03
2023-03-15T11:54:48.024Z,100315.47
2023-03-15T11:57:34.304Z,100311.97
2023-03-15T12:00:17.854Z,100310.44
2023-03-15T12:02:56.346Z,100317.25
2023-03-15T12:05:42.919Z,100331.91
2023-03-15T12:08:25.413Z,100317.81
2023-03-15T12:10:53.642Z,100316.50
2023-03-15T12:13:25.889Z,100308.06
2023-03-15T12:15:53.934Z,100319.06
2023-03-15T12:18:22.781Z,100306.53
2023-03-15T12:20:53.291Z,100316.38
2023-03-15T12:23:34.081Z,100306.38
2023-03-15T12:26:02.072Z,100306.97
2023-03-15T12:28:41.725Z,100297.44
2023-03-15T12:31:13.380Z,100304.28
2023-03-15T12:33:46.299Z,100322.88
2023-03-15T12:36:36.470Z,100319.63
2023-03-15T12:39:21.286Z,100306.00
2023-03-15T12:41:50.523Z,100304.50
2023-03-15T12:44:33.374Z,100307.75
2023-03-15T12:47:05.985Z,100311.34
2023-03-15T12:49:38.189Z,100298.53
2023-03-15T12:52:12.305Z,100294.66
2023-03-15T12:54:43.156Z,100292.91
2023-03-15T12:57:13.257Z,100289.91
2023-03-15T12:59:50.880Z,100286.31
2023-03-15T13:02:19.431Z,100281.28
2023-03-15T13:04:49.969Z,100284.94
2023-03-15T13:07:23.798Z,100276.59
2023-03-15T13:10:13.308Z,100289.13
2023-03-15T13:13:00.418Z,100283.19
2023-03-15T13:15:33.193Z,100282.25
2023-03-15T13:18:05.286Z,100277.91
2023-03-15T13:20:38.950Z,100290.44
2023-03-15T13:23:17.778Z,100291.09
2023-03-15T13:25:51.647Z,100278.75
2023-03-15T13:28:29.182Z,100280.69
2023-03-15T13:30:57.085Z,100286.41
2023-03-15T13:33:29.343Z,100273.13
2023-03-15T13:35:57.042Z,100283.56
2023-03-15T13:38:25.020Z,100275.44
2023-03-15T13:40:53.331Z,100272.09
2023-03-15T13:43:24.778Z,100293.69
2023-03-15T13:45:52.340Z,100285.88
2023-03-15T13:48:20.128Z,100282.56
2023-03-15T13:50:50.769Z,100283.94
2023-03-15T13:53:35.639Z,100282.41
2023-03-15T13:56:16.172Z,100285.69
2023-03-15T13:58:44.102Z,100282.50
2023-03-15T14:01:13.162Z,100292.69
2023-03-15T14:03:43.498Z,100283.41
2023-03-15T14:06:21.974Z,100271.78
2023-03-15T14:08:54.852Z,100276.69
2023-03-15T14:11:25.211Z,100278.28
2023-03-15T14:13:54.266Z,100282.13
2023-03-15T14:16:53.294Z,100287.03
2023-03-15T14:19:30.411Z,100286.69
2023-03-15T14:21:59.292Z,100297.53
2023-03-15T14:24:31.309Z,100295.22
2023-03-15T14:27:00.787Z,100295.41
2023-03-15T14:29:36.016Z,100297.16
2023-03-15T14:32:08.576Z,100299.22
2023-03-15T14:34:46.517Z,100307.94
2023-03-15T14:37:32.535Z,100309.47
2023-03-15T14:40:21.191Z,100310.38
2023-03-15T14:42:49.917Z,100310.56
2023-03-15T14:45:18.642Z,100313.53
2023-03-15T14:47:56.915Z,100319.84
2023-03-15T14:50:31.094Z,100323.84
2023-03-15T14:52:59.264Z,100318.91
2023-03-15T14:55:35.147Z,100319.91
2023-03-15T14:58:03.780Z,100315.19
2023-03-15T15:00:32.790Z,100319.56
2023-03-15T15:03:00.455Z,100326.75
2023-03-15T15:05:30.571Z,100321.00
2023-03-15T15:08:02.871Z,100323.28
2023-03-15T15:10:31.110Z,100317.38
2023-03-15T15:13:06.030Z,100333.81
2023-03-15T15:15:53.519Z,100334.97
2023-03-15T15:18:23.159Z,100333.84
2023-03-15T15:20:55.691Z,100326.59
2023-03-15T15:23:25.852Z,100327.06
2023-03-15T15:25:56.110Z,100324.22
2023-03-15T15:28:33.855Z,100331.69
2023-03-15T15:31:02.826Z,100323.34
2023-03-15T15:33:30.558Z,100324.50
2023-03-15T15:35:58.579Z,100325.53
2023-03-15T15:38:39.133Z,100321.94
2023-03-15T15:41:13.320Z,100320.44
2023-03-15T15:43:41.242Z,100322.97
2023-03-15T15:46:10.277Z,100320.31
2023-03-15T15:48:38.189Z,100326.66
2023-03-15T15:51:18.842Z,100329.91
2023-03-15T15:53:46.481Z,100336.22
2023-03-15T15:56:14.388Z,100338.38
2023-03-15T15:58:42.931Z,100332.22
2023-03-15T16:01:12.661Z,100341.78
2023-03-15T16:03:40.837Z,100345.31
2023-03-15T16:06:17.950Z,100353.38
2023-03-15T16:08:46.906Z,100355.88
2023-03-15T16:11:16.398Z,100354.50
2023-03-15T16:13:46.048Z,100356.50
2023-03-15T16:16:15.661Z,100358.44
2023-03-15T16:18:43.948Z,100364.00
2023-03-15T16:21:33.819Z,100373.59
2023-03-15T16:24:06.622Z,100368.16
2023-03-15T16:26:36.797Z,100370.66
2023-03-15T16:29:12.956Z,100375.13
2023-03-15T16:31:40.901Z,100388.53
2023-03-15T16:34:12.007Z,100386.63
2023-03-15T16:36:48.516Z,100384.84
2023-03-15T16:39:16.778Z,100380.88
2023-03-15T16:41:46.100Z,100381.34
2023-03-15T16:44:14.726Z,100388.38
2023-03-15T16:46:42.793Z,100393.69
2023-03-15T16:49:10.679Z,100396.53
2023-03-15T16:51:40.545Z,100400.25
2023-03-15T16:54:19.658Z,100407.78
2023-03-15T16:56:52.500Z,100413.13
2023-03-15T16:59:20.406Z,100419.09
2023-03-15T17:01:49.600Z,100420.84
2023-03-15T17:04:17.208Z,100428.97
2023-03-15T17:06:46.163Z,100429.00
2023-03-15T17:09:21.617Z,100442.78
2023-03-15T17:11:52.343Z,100446.09
2023-03-15T17:14:23.431Z,100450.06
2023-03-15T17:16:51.749Z,100450.50
2023-03-15T17:19:19.298Z,100452.75
2023-03-15T17:21:47.481Z,100462.75
2023-03-15T17:24:15.337Z,100470.09
2023-03-15T17:26:44.544Z,100475.06
2023-03-15T17:29:16.203Z,100481.84
2023-03-15T17:31:44.820Z,100492.84
2023-03-15T17:34:12.569Z,100486.78
2023-03-15T17:36:41.606Z,100492.81
2023-03-15T17:39:14.607Z,100495.59
2023-03-15T17:41:47.987Z,100495.06
2023-03-15T17:44:15.621Z,100497.22
2023-03-15T17:46:43.862Z,100507.03
2023-03-15T17:49:13.506Z,100507.50
2023-03-15T17:51:41.587Z,100516.47
2023-03-15T17:54:13.847Z,100521.47
2023-03-15T17:56:42.003Z,100525.72
2023-03-15T17:59:12.020Z,100535.53
2023-03-15T18:01:46.629Z,100533.22
2023-03-15T18:04:15.048Z,100544.34
2023-03-15T18:06:43.498Z,100551.16
2023-03-15T18:09:12.211Z,100558.22
2023-03-15T18:11:42.760Z,100563.59
2023-03-15T18:14:11.972Z,100562.66
2023-03-15T18:16:40.356Z,100571.78
2023-03-15T18:19:08.026Z,100579.47
2023-03-15T18:21:35.864Z,100576.47
2023-03-15T18:24:03.670Z,100573.84
2023-03-15T18:26:31.544Z,100575.97
2023-03-15T18:28:59.292Z,100577.75
2023-03-15T18:31:27.284Z,100585.03
2023-03-15T18:33:55.281Z,100584.59
2023-03-15T18:36:23.509Z,100588.81
2023-03-15T18:38:51.528Z,100592.38
2023-03-15T18:41:21.382Z,100592.84
2023-03-15T18:43:50.360Z,100599.72
2023-03-15T18:46:27.696Z,100608.03
2023-03-15T18:48:55.427Z,100610.34
2023-03-15T18:51:25.854Z,100608.47
2023-03-15T18:53:53.919Z,100622.59
2023-03-15T18:56:23.423Z,100628.63
2023-03-15T18:58:52.558Z,100634.00
2023-03-15T19:01:24.865Z,100634.13
2023-03-15T19:03:53.036Z,100638.59
2023-03-15T19:06:21.595Z,100650.59
2023-03-15T19:08:53.589Z,100653.41
2023-03-15T19:11:24.128Z,100653.50
2023-03-15T19:13:51.803Z,100659.38
2023-03-15T19:16:23.252Z,100666.53
2023-03-15T19:18:51.838Z,100664.31
2023-03-15T19:21:19.912Z,100666.59
2023-03-15T19:23:47.892Z,100674.25
2023-03-15T19:26:15.911Z,100679.31
2023-03-15T19:28:43.844Z,100679.34
2023-03-15T19:31:11.956Z,100680.75
2023-03-15T19:33:39.645Z,100687.03
2023-03-15T19:36:08.132Z,100695.44
2023-03-15T19:38:35.858Z,100694.72
2023-03-15T19:41:07.794Z,100703.19
2023-03-15T19:43:38.012Z,100704.44
2023-03-15T19:46:08.211Z,100708.09
2023-03-15T19:48:36.149Z,100717.84
2023-03-15T19:51:04.705Z,100716.81
2023-03-15T19:53:32.523Z,100723.13
2023-03-15T19:56:04.358Z,100726.47
2023-03-15T19:58:32.440Z,100726.34
2023-03-15T20:01:00.393Z,100729.88
2023-03-15T20:03:27.953Z,100734.88
2023-03-15T20:05:56.330Z,100735.31
2023-03-15T20:08:26.272Z,100747.06
2023-03-15T20:11:01.755Z,100752.31
2023-03-15T20:13:29.229Z,100755.44
2023-03-15T20:15:59.367Z,100751.78
2023-03-15T20:18:28.702Z,100760.47
2023-03-15T20:20:57.889Z,100759.38
2023-03-15T20:23:27.189Z,100764.25
2023-03-15T20:26:06.275Z,100762.78
2023-03-15T20:28:34.050Z,100768.22
2023-03-15T20:31:05.824Z,100771.53
2023-03-15T20:33:33.951Z,100775.19
2023-03-15T20:36:02.726Z,100778.63
2023-03-15T20:38:30.842Z,100775.72
2023-03-15T20:41:00.416Z,100783.16
2023-03-15T20:43:28.380Z,100788.97
2023-03-15T20:46:00.092Z,100790.72
2023-03-15T20:48:29.545Z,100789.00
2023-03-15T20:51:04.128Z,100798.97
2023-03-15T20:53:33.206Z,100787.47
2023-03-15T20:56:02.423Z,100793.94
2023-03-15T20:58:31.132Z,100794.56
2023-03-15T21:01:15.162Z,100802.13
2023-03-15T21:03:44.586Z,100797.53
2023-03-15T21:06:13.273Z,100804.19
2023-03-15T21:08:46.138Z,100810.13
2023-03-15T21:11:14.561Z,100808.56
2023-03-15T21:13:42.296Z,100815.16
2023-03-15T21:16:12.226Z,100808.25
2023-03-15T21:18:39.880Z,100813.47
2023-03-15T21:21:08.877Z,100819.59
2023-03-15T21:23:36.444Z,100824.97
2023-03-15T21:26:06.649Z,100822.75
2023-03-15T21:28:34.241Z,100824.16
2023-03-15T21:31:02.611Z,100830.47
2023-03-15T21:33:31.642Z,100833.59
2023-03-15T21:36:00.131Z,100844.44
2023-03-15T21:38:28.439Z,100844.09
2023-03-15T21:41:00.070Z,100845.22
2023-03-15T21:43:29.055Z,100848.94
2023-03-15T21:46:01.673Z,100840.97
2023-03-15T21:48:29.901Z,100845.31
2023-03-15T21:50:58.215Z,100845.47
2023-03-15T21:53:25.835Z,100855.03
2023-03-15T21:55:55.752Z,100862.63
2023-03-15T21:58:23.667Z,100884.25
2023-03-15T22:00:59.413Z,100889.09
2023-03-15T22:03:27.586Z,100870.06
2023-03-15T22:05:56.126Z,100865.66
2023-03-15T22:08:24.447Z,100865.66
2023-03-15T22:10:55.958Z,100865.44
2023-03-15T22:13:23.973Z,100870.59
2023-03-15T22:15:55.508Z,100880.03
2023-03-15T22:18:23.408Z,100879.88
2023-03-15T22:20:51.613Z,100875.28
2023-03-15T22:23:19.196Z,100881.16
2023-03-15T22:25:47.067Z,100886.00
2023-03-15T22:28:14.992Z,100893.53
2023-03-15T22:30:43.870Z,100891.22
2023-03-15T22:33:12.313Z,100895.47
2023-03-15T22:35:40.658Z,100887.72
2023-03-15T22:38:11.416Z,100891.94
2023-03-15T22:40:40.808Z,100888.25
2023-03-15T22:43:09.217Z,100888.06
2023-03-15T22:45:37.375Z,100889.53
2023-03-15T22:48:05.186Z,100898.31
2023-03-15T22:50:33.147Z,100899.00
2023-03-15T22:53:01.053Z,100886.59
2023-03-15T22:55:29.184Z,100885.66
2023-03-15T22:57:57.479Z,100881.41
2023-03-15T23:00:27.056Z,100885.03
2023-03-15T23:02:56.354Z,100879.59
2023-03-15T23:05:25.657Z,100894.06
2023-03-15T23:07:53.417Z,100901.97
2023-03-15T23:10:21.438Z,100899.81
2023-03-15T23:12:48.943Z,100898.13
2023-03-15T23:15:16.968Z,100900.22
2023-03-15T23:17:46.874Z,100900.50
2023-03-15T23:20:16.806Z,100896.00
2023-03-15T23:22:45.010Z,100909.38
2023-03-15T23:25:14.236Z,100914.13
2023-03-15T23:27:41.890Z,100907.44
2023-03-15T23:30:10.661Z,100915.69
2023-03-15T23:32:38.166Z,100917.88
2023-03-15T23:35:08.325Z,100919.78
2023-03-15T23:37:36.062Z,100925.84
2023-03-15T23:40:09.786Z,100928.78
2023-03-15T23:42:37.856Z,100931.38
2023-03-15T23:45:06.109Z,100928.13
2023-03-15T23:47:33.719Z,100935.03
2023-03-15T23:50:02.725Z,100933.88
2023-03-15T23:52:30.943Z,100936.28
2023-03-15T23:54:58.711Z,100939.28
2023-03-15T23:57:26.273Z,100941.78
2023-03-15T23:59:54.119Z,100942.13
